Time;durP1;ratioP1;P1;durP2;ratioP2;P2;SDS_P1;SDS_P2;PMS_P1;PMS_P2;Temp;Humidity;BMP_temperature;BMP_pressure;BME280_temperature;BME280_humidity;BME280_pressure;Samples;Min_cycle;Max_cycle;Signal;HPM_P1;HPM_P2
2023/03/20 00:00:56;;;;;;;21.40;16.60;;;10.50;99.90;;;;;;2083919;28;20557;-86
2023/03/20 00:01:57;;;;;;;20.35;16.15;;;10.40;99.90;;;;;;2095110;28;20119;-87
2023/03/20 00:02:58;;;;;;;19.48;15.23;;;10.40;99.90;;;;;;2099993;28;20032;-85
2023/03/20 00:03:58;;;;;;;20.25;15.73;;;10.40;99.90;;;;;;2100348;28;20028;-84
2023/03/20 00:04:59;;;;;;;19.55;15.52;;;10.50;99.90;;;;;;2091130;28;20048;-84
2023/03/20 00:06:00;;;;;;;20.80;15.45;;;10.40;99.90;;;;;;2092975;28;20067;-85
2023/03/20 00:07:00;;;;;;;22.25;17.10;;;10.40;99.90;;;;;;2076717;28;20124;-75
2023/03/20 00:08:01;;;;;;;19.98;16.08;;;10.50;99.90;;;;;;2068724;28;20041;-74
2023/03/20 00:09:02;;;;;;;19.63;16.02;;;10.40;99.90;;;;;;2088477;28;20447;-73
2023/03/20 00:10:03;;;;;;;21.20;15.82;;;10.50;99.90;;;;;;2089422;28;20055;-73
2023/03/20 00:11:04;;;;;;;22.30;16.95;;;10.50;99.90;;;;;;2085194;28;20119;-73
2023/03/20 00:12:05;;;;;;;21.80;15.90;;;10.40;99.90;;;;;;2091789;28;20119;-73
2023/03/20 00:13:10;;;;;;;25.95;17.05;;;10.40;99.90;;;;;;2089857;28;20657;-73
2023/03/20 00:14:14;;;;;;;32.80;19.50;;;10.40;99.90;;;;;;2084638;28;20041;-73
2023/03/20 00:15:35;;;;;;;47.95;24.80;;;10.40;99.90;;;;;;2085345;28;20510;-73
2023/03/20 00:16:39;;;;;;;50.58;25.98;;;10.40;99.90;;;;;;2090880;28;20040;-81
2023/03/20 00:17:39;;;;;;;47.70;25.40;;;10.40;99.90;;;;;;2089363;28;20028;-80
2023/03/20 00:18:40;;;;;;;47.97;25.00;;;10.40;99.90;;;;;;2089972;28;20514;-81
2023/03/20 00:19:41;;;;;;;39.40;22.95;;;10.40;99.90;;;;;;2099148;28;20024;-82
2023/03/20 00:20:42;;;;;;;36.45;21.63;;;10.40;99.90;;;;;;2101187;28;20670;-84
2023/03/20 00:21:45;;;;;;;32.10;20.17;;;10.30;99.90;;;;;;2099303;28;20054;-82
2023/03/20 00:22:45;;;;;;;31.77;19.88;;;10.30;99.90;;;;;;2089763;28;20087;-82
2023/03/20 00:23:46;;;;;;;30.80;19.20;;;10.30;99.90;;;;;;2090078;28;20517;-81
2023/03/20 00:24:47;;;;;;;30.52;19.33;;;10.40;99.90;;;;;;2068612;28;20029;-82
2023/03/20 00:25:48;;;;;;;28.48;18.20;;;10.40;99.90;;;;;;2078219;28;20398;-81
2023/03/20 00:26:50;;;;;;;29.60;19.20;;;10.40;99.90;;;;;;2079583;28;20036;-82
2023/03/20 00:27:51;;;;;;;26.02;18.33;;;10.40;99.90;;;;;;2089404;28;20032;-83
2023/03/20 00:28:51;;;;;;;25.15;18.10;;;10.30;99.90;;;;;;2075605;28;20243;-81
2023/03/20 00:29:52;;;;;;;21.95;16.35;;;10.30;99.90;;;;;;2067497;28;20070;-81
2023/03/20 00:30:53;;;;;;;15.85;12.23;;;10.30;99.90;;;;;;2067103;28;20115;-81
2023/03/20 00:31:56;;;;;;;16.67;12.05;;;10.40;99.90;;;;;;2070997;28;20539;-81
2023/03/20 00:32:57;;;;;;;17.02;13.77;;;10.40;99.90;;;;;;2072015;28;20033;-83
2023/03/20 00:34:00;;;;;;;18.00;13.98;;;10.40;99.90;;;;;;2081354;28;20855;-82
2023/03/20 00:35:17;;;;;;;16.40;13.02;;;10.40;99.90;;;;;;2090072;28;20025;-81
2023/03/20 00:36:18;;;;;;;16.38;12.68;;;10.30;99.90;;;;;;2079426;28;20029;-82
2023/03/20 00:37:18;;;;;;;15.23;12.13;;;10.30;99.90;;;;;;2081195;28;20519;-83
2023/03/20 00:38:19;;;;;;;16.00;11.23;;;10.30;99.90;;;;;;2081715;28;20079;-84
2023/03/20 00:39:20;;;;;;;14.90;11.32;;;10.40;99.90;;;;;;2076131;28;20044;-83
2023/03/20 00:40:22;;;;;;;15.10;10.80;;;10.40;99.90;;;;;;2082263;28;20395;-84
2023/03/20 00:41:25;;;;;;;13.95;10.43;;;10.40;99.90;;;;;;2100696;28;20028;-80
2023/03/20 00:42:25;;;;;;;11.38;9.68;;;10.40;99.90;;;;;;2091198;28;20044;-81
2023/03/20 00:43:26;;;;;;;11.73;9.57;;;10.40;99.90;;;;;;2083154;28;20029;-80
2023/03/20 00:44:34;;;;;;;13.50;10.10;;;10.40;99.90;;;;;;2076564;28;20036;-81
2023/03/20 00:45:35;;;;;;;9.75;8.52;;;10.50;99.90;;;;;;2078425;28;20108;-83
2023/03/20 00:46:37;;;;;;;11.25;8.88;;;10.50;99.90;;;;;;2074430;28;20033;-81
2023/03/20 00:47:40;;;;;;;13.43;8.23;;;10.50;99.90;;;;;;2083108;28;20487;-81
2023/03/20 00:48:42;;;;;;;10.07;8.35;;;10.50;99.90;;;;;;2091062;28;20032;-80
2023/03/20 00:49:44;;;;;;;10.25;8.10;;;10.50;99.90;;;;;;2093070;28;20025;-81
2023/03/20 00:50:45;;;;;;;9.00;7.90;;;10.50;99.90;;;;;;2072159;28;20032;-81
2023/03/20 00:51:45;;;;;;;10.40;7.85;;;10.50;99.90;;;;;;2071422;28;20081;-81
2023/03/20 00:52:47;;;;;;;9.43;7.85;;;10.50;99.90;;;;;;2069733;28;20493;-81
2023/03/20 00:53:48;;;;;;;8.60;7.30;;;10.50;99.90;;;;;;2070420;28;20072;-81
2023/03/20 00:54:48;;;;;;;9.43;7.85;;;10.40;99.90;;;;;;2078310;28;20099;-81
2023/03/20 00:55:49;;;;;;;9.82;7.72;;;10.40;99.90;;;;;;2090933;28;20396;-82
2023/03/20 00:57:04;;;;;;;8.73;7.53;;;10.40;99.90;;;;;;2090951;28;20042;-80
2023/03/20 00:58:05;;;;;;;9.35;8.02;;;10.50;99.90;;;;;;2093162;28;20032;-80
2023/03/20 00:59:15;;;;;;;8.88;7.97;;;10.40;99.90;;;;;;2092730;28;20024;-81
2023/03/20 01:00:43;;;;;;;11.10;8.20;;;10.40;99.90;;;;;;2086440;28;20149;-81
2023/03/20 01:01:45;;;;;;;8.75;7.47;;;10.40;99.90;;;;;;2081356;28;20044;-81
2023/03/20 01:02:46;;;;;;;9.35;7.38;;;10.40;99.90;;;;;;2074450;28;20033;-81
2023/03/20 01:03:47;;;;;;;10.30;7.50;;;10.50;99.90;;;;;;2082650;28;20044;-83
2023/03/20 01:04:48;;;;;;;8.10;6.97;;;10.50;99.90;;;;;;2092753;28;20111;-81
2023/03/20 01:05:50;;;;;;;8.00;6.78;;;10.50;99.90;;;;;;2082840;28;20442;-81
2023/03/20 01:06:51;;;;;;;9.10;7.00;;;10.50;99.90;;;;;;2070184;28;20280;-81
2023/03/20 01:07:52;;;;;;;7.72;6.40;;;10.50;99.90;;;;;;2071327;28;20037;-81
2023/03/20 01:08:56;;;;;;;8.48;6.75;;;10.50;99.90;;;;;;2081118;28;20159;-81
2023/03/20 01:09:59;;;;;;;8.38;6.80;;;10.50;99.90;;;;;;2078287;28;20037;-80
2023/03/20 01:11:00;;;;;;;8.93;7.00;;;10.50;99.90;;;;;;2076501;28;20064;-80
2023/03/20 01:12:01;;;;;;;9.25;6.93;;;10.50;99.90;;;;;;2084493;28;20041;-82
2023/03/20 01:13:02;;;;;;;8.65;7.60;;;10.50;99.90;;;;;;2069976;28;20560;-82
2023/03/20 01:14:05;;;;;;;10.00;8.38;;;10.50;99.90;;;;;;2077944;28;20359;-80
2023/03/20 01:15:22;;;;;;;10.00;7.72;;;10.50;99.90;;;;;;2078637;28;20594;-81
2023/03/20 01:16:24;;;;;;;8.90;7.60;;;10.50;99.90;;;;;;2074819;28;20081;-80
2023/03/20 01:17:28;;;;;;;9.57;7.80;;;10.50;99.90;;;;;;2083295;28;20033;-80
2023/03/20 01:18:29;;;;;;;8.60;7.25;;;10.50;99.90;;;;;;2089390;28;20028;-81
2023/03/20 01:19:29;;;;;;;9.60;7.65;;;10.50;99.90;;;;;;2079888;28;20447;-80
2023/03/20 01:20:30;;;;;;;8.55;7.25;;;10.40;99.90;;;;;;2092889;28;20116;-80
2023/03/20 01:21:31;;;;;;;7.75;6.95;;;10.50;99.90;;;;;;2081382;28;20662;-81
2023/03/20 01:22:31;;;;;;;8.07;7.28;;;10.40;99.90;;;;;;2089605;28;20103;-80
2023/03/20 01:23:32;;;;;;;7.55;6.60;;;10.50;99.90;;;;;;2087692;28;20108;-79
2023/03/20 01:24:33;;;;;;;7.35;6.50;;;10.50;99.90;;;;;;2084812;28;20112;-80
2023/03/20 01:25:34;;;;;;;7.78;6.63;;;10.40;99.90;;;;;;2079077;28;20483;-79
2023/03/20 01:26:37;;;;;;;8.05;6.40;;;10.40;99.90;;;;;;2090812;28;20028;-80
2023/03/20 01:27:39;;;;;;;6.97;6.20;;;10.40;99.90;;;;;;2087427;28;20486;-80
2023/03/20 01:28:39;;;;;;;7.68;6.60;;;10.50;99.90;;;;;;2085236;28;20090;-80
2023/03/20 01:29:41;;;;;;;7.93;6.95;;;10.50;99.90;;;;;;2098146;28;20134;-80
2023/03/20 01:30:42;;;;;;;7.68;6.72;;;10.40;99.90;;;;;;2083110;28;20411;-80
2023/03/20 01:31:43;;;;;;;7.85;6.60;;;10.40;99.90;;;;;;2082571;28;20171;-80
2023/03/20 01:32:46;;;;;;;6.97;6.28;;;10.40;99.90;;;;;;2088274;28;20478;-80
2023/03/20 01:33:47;;;;;;;8.63;6.63;;;10.40;99.90;;;;;;2082670;28;20032;-78
2023/03/20 01:34:47;;;;;;;7.10;6.32;;;10.40;99.90;;;;;;2080925;28;20037;-79
2023/03/20 01:35:50;;;;;;;10.20;6.97;;;10.40;99.90;;;;;;2085938;28;20680;-79
2023/03/20 01:36:53;;;;;;;7.90;7.10;;;10.40;99.90;;;;;;2086300;28;20097;-80
2023/03/20 01:37:55;;;;;;;11.05;8.75;;;10.40;99.90;;;;;;2090484;28;20090;-80
2023/03/20 01:38:57;;;;;;;9.57;8.48;;;10.40;99.90;;;;;;2074406;28;20272;-80
2023/03/20 01:39:58;;;;;;;12.13;8.77;;;10.40;99.90;;;;;;2081296;28;20452;-80
2023/03/20 01:41:21;;;;;;;11.10;8.82;;;10.40;99.90;;;;;;2079401;28;20025;-79
2023/03/20 01:42:22;;;;;;;10.32;8.30;;;10.30;99.90;;;;;;2080294;28;20036;-81
2023/03/20 01:43:25;;;;;;;10.70;8.93;;;10.30;99.90;;;;;;2082364;28;20570;-82
2023/03/20 01:44:29;;;;;;;11.60;8.90;;;10.30;99.90;;;;;;2092626;28;20035;-80
2023/03/20 01:45:35;;;;;;;10.90;8.50;;;10.30;99.90;;;;;;2077029;28;20451;-80
2023/03/20 01:46:37;;;;;;;12.18;9.55;;;10.30;99.90;;;;;;2082828;28;20060;-81
2023/03/20 01:47:47;;;;;;;11.60;8.93;;;10.30;99.90;;;;;;2092426;28;20029;-80
2023/03/20 01:48:49;;;;;;;11.70;9.05;;;10.30;99.90;;;;;;2082515;28;20025;-80
2023/03/20 01:50:21;;;;;;;10.45;8.82;;;10.30;99.90;;;;;;2065949;28;20022;-81
2023/03/20 01:51:32;;;;;;;12.77;9.55;;;10.30;99.90;;;;;;2077138;28;20028;-80
2023/03/20 01:52:37;;;;;;;11.75;9.52;;;10.30;99.90;;;;;;2075903;28;20107;-80
2023/03/20 01:53:37;;;;;;;12.57;9.90;;;10.30;99.90;;;;;;2082874;28;20478;-81
2023/03/20 01:54:38;;;;;;;10.77;8.98;;;10.20;99.90;;;;;;2092598;28;20495;-80
2023/03/20 01:55:45;;;;;;;11.68;9.48;;;10.20;99.90;;;;;;2090670;28;20036;-80
2023/03/20 01:56:52;;;;;;;12.52;9.63;;;10.20;99.90;;;;;;2090775;28;20453;-81
2023/03/20 01:57:56;;;;;;;12.43;10.25;;;10.20;99.90;;;;;;2090363;28;20299;-80
2023/03/20 01:59:02;;;;;;;13.10;10.50;;;10.20;99.90;;;;;;2082756;28;20384;-81
2023/03/20 02:00:09;;;;;;;12.45;10.02;;;10.20;99.90;;;;;;2082802;28;20563;-80
2023/03/20 02:01:16;;;;;;;12.63;10.20;;;10.20;99.90;;;;;;2085871;28;20179;-81
2023/03/20 02:02:27;;;;;;;13.40;9.98;;;10.20;99.90;;;;;;2080896;28;20029;-82
2023/03/20 02:03:28;;;;;;;12.35;9.88;;;10.20;99.90;;;;;;2084899;28;20063;-81
2023/03/20 02:04:46;;;;;;;11.93;10.00;;;10.20;99.90;;;;;;2087940;28;20048;-75
2023/03/20 02:05:49;;;;;;;12.13;9.60;;;10.20;99.90;;;;;;2082295;28;20131;-81
2023/03/20 02:06:50;;;;;;;11.48;9.35;;;10.20;99.90;;;;;;2081834;28;20069;-80
2023/03/20 02:08:27;;;;;;;12.00;9.73;;;10.20;99.90;;;;;;2082514;28;20135;-79
2023/03/20 02:09:28;;;;;;;12.35;9.80;;;10.20;99.90;;;;;;2063355;28;20041;-78
2023/03/20 02:10:29;;;;;;;13.23;9.95;;;10.20;99.90;;;;;;2070834;28;20459;-79
2023/03/20 02:11:42;;;;;;;13.93;11.27;;;10.20;99.90;;;;;;2075211;28;20037;-80
2023/03/20 02:12:44;;;;;;;20.35;15.07;;;10.20;99.90;;;;;;2073702;28;20408;-80
2023/03/20 02:13:54;;;;;;;16.17;13.27;;;10.20;99.90;;;;;;2070940;28;20107;-80
2023/03/20 02:14:56;;;;;;;17.17;13.55;;;10.10;99.90;;;;;;2074820;28;20568;-80
2023/03/20 02:16:16;;;;;;;15.00;12.50;;;10.10;99.90;;;;;;2083462;28;20060;-82
2023/03/20 02:17:37;;;;;;;17.30;14.10;;;10.10;99.90;;;;;;2079210;28;20063;-79
2023/03/20 02:18:48;;;;;;;17.02;13.63;;;10.10;99.90;;;;;;2082699;28;20048;-79
2023/03/20 02:20:16;;;;;;;17.33;13.35;;;10.10;99.90;;;;;;2090400;28;20113;-78
2023/03/20 02:21:50;;;;;;;17.65;13.50;;;10.10;99.90;;;;;;2075883;28;20030;-78
2023/03/20 02:23:02;;;;;;;18.38;14.07;;;10.10;99.90;;;;;;2071492;28;20093;-79
2023/03/20 02:24:23;;;;;;;19.20;14.82;;;10.10;99.90;;;;;;2068277;28;20512;-79
2023/03/20 02:25:57;;;;;;;19.98;15.82;;;10.10;99.90;;;;;;2073810;28;20029;-80
2023/03/20 02:27:17;;;;;;;24.52;17.58;;;10.10;99.90;;;;;;2094512;28;20128;-81
2023/03/20 02:28:36;;;;;;;21.40;16.10;;;10.00;99.90;;;;;;2076739;28;20099;-80
2023/03/20 02:30:11;;;;;;;20.60;15.60;;;10.00;99.90;;;;;;2078956;28;20602;-80
2023/03/20 02:31:53;;;;;;;19.92;15.65;;;10.00;99.90;;;;;;2078498;28;20073;-81
2023/03/20 02:33:21;;;;;;;20.05;16.05;;;10.00;99.90;;;;;;2068432;28;20068;-79
2023/03/20 02:34:45;;;;;;;22.83;16.25;;;10.00;99.90;;;;;;2081163;28;20086;-81
2023/03/20 02:36:25;;;;;;;20.23;15.52;;;10.00;99.90;;;;;;2083976;28;20024;-80
2023/03/20 02:37:42;;;;;;;19.88;15.27;;;10.00;99.90;;;;;;2081627;28;20029;-80
2023/03/20 02:39:14;;;;;;;19.02;14.85;;;10.00;99.90;;;;;;2084551;28;20128;-80
2023/03/20 02:40:51;;;;;;;19.55;14.57;;;10.00;99.90;;;;;;2081935;28;20452;-80
2023/03/20 02:42:04;;;;;;;16.65;13.63;;;10.10;99.90;;;;;;2080618;28;20040;-79
2023/03/20 02:43:18;;;;;;;17.88;14.05;;;10.10;99.90;;;;;;2075267;28;20033;-79
2023/03/20 02:44:47;;;;;;;16.98;13.82;;;10.00;99.90;;;;;;2084405;28;20028;-81
2023/03/20 02:46:27;;;;;;;17.42;13.35;;;10.10;99.90;;;;;;2084593;28;20353;-80
2023/03/20 02:47:40;;;;;;;18.05;13.90;;;10.10;99.90;;;;;;2090770;28;20024;-80
2023/03/20 02:49:00;;;;;;;20.10;15.50;;;10.10;99.90;;;;;;2085843;28;20368;-81
2023/03/20 02:50:31;;;;;;;17.40;13.20;;;10.10;99.90;;;;;;2083632;28;20032;-81
2023/03/20 02:51:51;;;;;;;15.85;12.10;;;10.10;99.90;;;;;;2089193;28;20020;-79
2023/03/20 02:53:30;;;;;;;14.65;10.95;;;10.10;99.90;;;;;;2076538;28;20499;-80
2023/03/20 02:54:57;;;;;;;14.60;10.95;;;10.10;99.90;;;;;;2080409;28;20063;-79
2023/03/20 02:56:27;;;;;;;12.75;10.38;;;10.10;99.90;;;;;;2094174;28;20167;-81
2023/03/20 02:57:59;;;;;;;11.73;9.30;;;10.10;99.90;;;;;;2077321;28;20585;-81
2023/03/20 02:59:11;;;;;;;13.23;9.70;;;10.10;99.90;;;;;;2078768;28;20029;-79
2023/03/20 03:00:19;;;;;;;11.45;9.63;;;10.10;99.90;;;;;;2080328;28;20021;-80
2023/03/20 03:01:26;;;;;;;12.15;9.25;;;10.10;99.90;;;;;;2084208;28;20032;-79
2023/03/20 03:02:57;;;;;;;11.77;9.65;;;10.10;99.90;;;;;;2090113;28;20392;-81
2023/03/20 03:04:06;;;;;;;13.30;10.05;;;10.20;99.90;;;;;;2068642;28;20063;-81
2023/03/20 03:05:15;;;;;;;12.20;9.63;;;10.20;99.90;;;;;;2080739;28;20028;-80
2023/03/20 03:06:26;;;;;;;13.75;9.35;;;10.10;99.90;;;;;;2077811;28;20082;-80
2023/03/20 03:07:31;;;;;;;11.13;8.85;;;10.20;99.90;;;;;;2078296;28;20033;-78
2023/03/20 03:08:39;;;;;;;11.30;8.57;;;10.20;99.90;;;;;;2090283;28;20025;-79
2023/03/20 03:09:48;;;;;;;9.23;7.90;;;10.20;99.90;;;;;;2075732;28;20025;-79
2023/03/20 03:10:57;;;;;;;9.57;7.90;;;10.20;99.90;;;;;;2077985;28;20119;-79
2023/03/20 03:12:04;;;;;;;9.90;8.00;;;10.20;99.90;;;;;;2069320;28;20060;-79
2023/03/20 03:13:14;;;;;;;9.25;7.80;;;10.20;99.90;;;;;;2066919;28;20021;-78
2023/03/20 03:14:31;;;;;;;11.63;8.50;;;10.20;99.90;;;;;;2070529;28;20068;-79
2023/03/20 03:15:39;;;;;;;11.32;8.68;;;10.20;99.90;;;;;;2077835;28;20048;-80
2023/03/20 03:16:41;;;;;;;10.63;8.82;;;10.20;99.90;;;;;;2071957;28;20013;-80
2023/03/20 03:17:46;;;;;;;10.68;7.72;;;10.20;99.90;;;;;;2069491;28;20033;-80
2023/03/20 03:18:51;;;;;;;10.32;7.95;;;10.20;99.90;;;;;;2077936;28;20030;-80
2023/03/20 03:19:57;;;;;;;9.77;7.43;;;10.30;99.90;;;;;;2077791;28;20029;-80
2023/03/20 03:21:01;;;;;;;8.38;7.18;;;10.30;99.90;;;;;;2074724;28;20044;-80
2023/03/20 03:22:04;;;;;;;9.55;7.43;;;10.30;99.90;;;;;;2066559;28;20029;-80
2023/03/20 03:23:06;;;;;;;8.82;7.18;;;10.30;99.90;;;;;;2068300;28;20032;-79
2023/03/20 03:24:20;;;;;;;8.90;7.00;;;10.30;99.90;;;;;;2079924;28;20029;-80
2023/03/20 03:25:26;;;;;;;8.65;7.40;;;10.30;99.90;;;;;;2085611;28;20033;-79
2023/03/20 03:26:32;;;;;;;8.68;6.75;;;10.30;99.90;;;;;;2083925;28;20128;-79
2023/03/20 03:27:38;;;;;;;8.13;6.70;;;10.30;99.90;;;;;;2073006;28;20030;-81
2023/03/20 03:29:00;;;;;;;8.63;7.20;;;10.30;99.90;;;;;;2071916;28;20045;-81
2023/03/20 03:30:19;;;;;;;8.15;6.82;;;10.30;99.90;;;;;;2071987;28;20106;-80
2023/03/20 03:31:23;;;;;;;8.43;7.25;;;10.30;99.90;;;;;;2078215;28;20217;-80
2023/03/20 03:32:31;;;;;;;8.43;7.50;;;10.30;99.90;;;;;;2071221;28;20114;-80
2023/03/20 03:33:35;;;;;;;10.32;7.93;;;10.30;99.90;;;;;;2080711;28;20030;-78
2023/03/20 03:34:36;;;;;;;12.05;8.65;;;10.30;99.90;;;;;;2073064;28;20037;-81
2023/03/20 03:35:38;;;;;;;10.27;7.95;;;10.30;99.90;;;;;;2073494;28;20073;-81
2023/03/20 03:37:02;;;;;;;9.93;7.90;;;10.30;99.90;;;;;;2086970;28;20138;-81
2023/03/20 03:38:25;;;;;;;8.73;7.25;;;10.30;99.90;;;;;;2081533;28;20040;-80
2023/03/20 03:39:52;;;;;;;8.45;6.80;;;10.30;99.90;;;;;;2076563;28;20306;-80
2023/03/20 03:41:06;;;;;;;9.40;6.90;;;10.30;99.90;;;;;;2070695;28;20044;-80
2023/03/20 03:42:17;;;;;;;8.50;7.15;;;10.30;99.90;;;;;;2077169;28;20308;-79
2023/03/20 03:43:34;;;;;;;8.45;6.32;;;10.30;99.90;;;;;;2084034;28;20028;-80
2023/03/20 03:44:56;;;;;;;8.57;6.43;;;10.30;99.90;;;;;;2077057;28;20112;-79
2023/03/20 03:46:15;;;;;;;7.05;6.03;;;10.30;99.90;;;;;;2077731;28;20103;-80
2023/03/20 03:47:24;;;;;;;9.27;7.07;;;10.30;99.90;;;;;;2063920;28;20572;-80
2023/03/20 03:48:37;;;;;;;8.15;6.40;;;10.30;99.90;;;;;;2072941;28;20041;-78
2023/03/20 03:49:43;;;;;;;7.82;6.35;;;10.40;99.90;;;;;;2088284;28;20060;-78
2023/03/20 03:50:49;;;;;;;7.38;6.13;;;10.30;99.90;;;;;;2079941;28;20032;-79
2023/03/20 03:51:55;;;;;;;7.90;6.40;;;10.30;99.90;;;;;;2072008;28;20105;-79
2023/03/20 03:53:02;;;;;;;6.97;5.70;;;10.40;99.90;;;;;;2076201;28;20022;-79
2023/03/20 03:54:10;;;;;;;6.57;5.88;;;10.40;99.90;;;;;;2075491;28;20029;-79
2023/03/20 03:55:19;;;;;;;6.15;5.40;;;10.40;99.90;;;;;;2073531;28;20025;-79
2023/03/20 03:56:39;;;;;;;6.10;5.45;;;10.40;99.90;;;;;;2083769;28;20069;-79
2023/03/20 03:57:44;;;;;;;7.32;5.20;;;10.40;99.90;;;;;;2077338;28;20037;-80
2023/03/20 03:58:52;;;;;;;6.07;5.30;;;10.40;99.90;;;;;;2077687;28;20033;-80
2023/03/20 03:59:55;;;;;;;6.80;5.38;;;10.40;99.90;;;;;;2069138;28;20136;-80
2023/03/20 04:00:57;;;;;;;6.70;5.70;;;10.40;99.90;;;;;;2071311;28;20433;-79
2023/03/20 04:02:00;;;;;;;13.30;11.32;;;10.40;99.90;;;;;;2078911;28;20203;-80
2023/03/20 04:03:02;;;;;;;14.77;11.98;;;10.40;99.90;;;;;;2078861;28;20067;-80
2023/03/20 04:04:07;;;;;;;17.98;13.88;;;10.40;99.90;;;;;;2079148;28;20029;-79
2023/03/20 04:05:09;;;;;;;23.63;18.40;;;10.40;99.90;;;;;;2070822;28;20796;-80
2023/03/20 04:06:14;;;;;;;24.80;18.35;;;10.30;99.90;;;;;;2085892;28;20417;-79
2023/03/20 04:07:15;;;;;;;23.30;18.83;;;10.30;99.90;;;;;;2069951;28;20189;-79
2023/03/20 04:08:16;;;;;;;24.25;17.48;;;10.20;99.90;;;;;;2077358;28;20087;-80
2023/03/20 04:09:16;;;;;;;22.15;17.85;;;10.10;99.90;;;;;;2072134;28;20144;-79
2023/03/20 04:10:17;;;;;;;22.05;16.05;;;10.10;99.90;;;;;;2071120;28;20033;-79
2023/03/20 04:11:24;;;;;;;18.83;15.93;;;10.10;99.90;;;;;;2083621;28;20037;-81
2023/03/20 04:12:31;;;;;;;29.50;22.73;;;10.10;99.90;;;;;;2077583;28;20064;-79
2023/03/20 04:13:32;;;;;;;25.67;19.63;;;10.00;99.90;;;;;;2086142;28;20494;-79
2023/03/20 04:14:33;;;;;;;24.80;19.23;;;9.90;99.90;;;;;;2081393;28;20033;-80
2023/03/20 04:15:33;;;;;;;23.70;17.77;;;9.90;99.90;;;;;;2070303;28;20113;-79
2023/03/20 04:16:35;;;;;;;21.60;17.08;;;9.90;99.90;;;;;;2073611;28;20018;-87
2023/03/20 04:17:36;;;;;;;21.33;16.92;;;9.90;99.90;;;;;;2063949;28;20698;-85
2023/03/20 04:18:37;;;;;;;22.45;17.52;;;9.90;99.90;;;;;;2072121;28;20087;-85
2023/03/20 04:19:38;;;;;;;20.00;16.40;;;9.90;99.90;;;;;;2081758;28;20055;-84
2023/03/20 04:20:39;;;;;;;19.45;15.80;;;9.90;99.90;;;;;;2084755;28;20191;-85
2023/03/20 04:21:40;;;;;;;21.25;16.85;;;9.90;99.90;;;;;;2078755;28;20037;-85
2023/03/20 04:22:41;;;;;;;19.40;15.68;;;9.90;99.90;;;;;;2075788;28;20552;-85
2023/03/20 04:23:46;;;;;;;18.52;15.35;;;9.90;99.90;;;;;;2078775;28;20062;-86
2023/03/20 04:24:48;;;;;;;19.17;15.73;;;9.90;99.90;;;;;;2073113;28;20469;-87
2023/03/20 04:25:49;;;;;;;21.10;16.50;;;9.90;99.90;;;;;;2075846;28;20021;-85
2023/03/20 04:26:50;;;;;;;19.88;16.38;;;9.90;99.90;;;;;;2072022;28;20088;-86
2023/03/20 04:27:51;;;;;;;21.67;17.20;;;9.90;99.90;;;;;;2078412;28;20060;-85
2023/03/20 04:29:00;;;;;;;21.30;16.60;;;9.90;99.90;;;;;;2079360;28;20063;-86
2023/03/20 04:30:19;;;;;;;21.80;16.00;;;9.90;99.90;;;;;;2092118;28;20040;-87
2023/03/20 04:31:38;;;;;;;20.55;15.75;;;9.90;99.90;;;;;;2095226;28;20663;-86
2023/03/20 04:33:01;;;;;;;21.63;15.88;;;10.00;99.90;;;;;;2096053;28;20059;-88
2023/03/20 04:34:13;;;;;;;17.60;14.85;;;10.00;99.90;;;;;;2084165;28;20040;-87
2023/03/20 04:35:33;;;;;;;18.90;14.80;;;10.00;99.90;;;;;;2090907;28;20517;-88
2023/03/20 04:36:38;;;;;;;17.88;14.27;;;10.00;99.90;;;;;;2094883;28;20588;-87
2023/03/20 04:37:41;;;;;;;17.55;13.55;;;10.00;99.90;;;;;;2082933;28;20039;-86
2023/03/20 04:38:42;;;;;;;17.75;14.18;;;10.00;99.90;;;;;;2084835;28;20048;-86
2023/03/20 04:39:43;;;;;;;16.42;13.60;;;10.00;99.90;;;;;;2088843;28;20551;-85
2023/03/20 04:40:46;;;;;;;16.52;13.60;;;10.00;99.90;;;;;;2082265;28;20037;-86
2023/03/20 04:41:47;;;;;;;16.63;13.52;;;10.00;99.90;;;;;;2081764;28;20172;-85
2023/03/20 04:42:48;;;;;;;18.67;14.90;;;10.00;99.90;;;;;;2087877;28;20032;-87
2023/03/20 04:43:48;;;;;;;17.77;14.27;;;10.00;99.90;;;;;;2081779;28;20144;-87
2023/03/20 04:44:49;;;;;;;16.85;13.55;;;9.90;99.90;;;;;;2085883;28;20025;-86
2023/03/20 04:45:50;;;;;;;17.70;13.32;;;10.00;99.90;;;;;;2073543;28;20033;-85
2023/03/20 04:46:51;;;;;;;18.95;13.52;;;9.90;99.90;;;;;;2080698;28;20151;-87
2023/03/20 04:47:52;;;;;;;17.23;13.07;;;9.90;99.90;;;;;;2090060;28;20025;-86
2023/03/20 04:48:55;;;;;;;15.70;12.35;;;9.90;99.90;;;;;;2080790;28;20625;-87
2023/03/20 04:49:56;;;;;;;16.70;13.27;;;9.90;99.90;;;;;;2079668;28;20037;-85
2023/03/20 04:50:57;;;;;;;16.45;13.68;;;9.90;99.90;;;;;;2070714;28;20271;-86
2023/03/20 04:52:04;;;;;;;18.75;14.23;;;9.90;99.90;;;;;;2081538;28;20036;-87
2023/03/20 04:53:12;;;;;;;17.42;14.18;;;9.80;99.90;;;;;;2078027;28;20018;-86
2023/03/20 04:54:12;;;;;;;17.08;13.85;;;9.90;99.90;;;;;;2088853;28;20025;-85
2023/03/20 04:55:13;;;;;;;17.35;13.43;;;9.90;99.90;;;;;;2099064;28;20041;-85
2023/03/20 04:56:14;;;;;;;17.35;13.27;;;9.90;99.90;;;;;;2080146;28;20034;-85
2023/03/20 04:57:15;;;;;;;16.92;12.68;;;9.80;99.90;;;;;;2080129;28;20294;-84
2023/03/20 04:58:16;;;;;;;15.00;11.63;;;9.80;99.90;;;;;;2076243;28;20115;-79
2023/03/20 04:59:19;;;;;;;16.60;12.05;;;9.80;99.90;;;;;;2072225;28;20025;-81
2023/03/20 05:00:20;;;;;;;14.48;11.70;;;9.80;99.90;;;;;;2069990;28;20128;-81
2023/03/20 05:01:22;;;;;;;14.23;11.63;;;9.80;99.90;;;;;;2069884;28;20579;-82
2023/03/20 05:02:23;;;;;;;13.98;11.25;;;9.90;99.90;;;;;;2078182;28;20116;-81
2023/03/20 05:03:23;;;;;;;12.80;10.77;;;9.80;99.90;;;;;;2081316;28;20033;-82
2023/03/20 05:04:25;;;;;;;13.82;11.20;;;9.90;99.90;;;;;;2087292;28;20684;-81
2023/03/20 05:05:25;;;;;;;14.60;10.63;;;9.90;99.90;;;;;;2078889;28;20535;-82
2023/03/20 05:06:28;;;;;;;12.70;10.25;;;9.90;99.90;;;;;;2083351;28;20036;-81
2023/03/20 05:07:28;;;;;;;13.35;10.95;;;9.90;99.90;;;;;;2087495;28;20107;-81
2023/03/20 05:08:40;;;;;;;13.43;10.43;;;9.90;99.90;;;;;;2088892;28;20016;-81
2023/03/20 05:09:40;;;;;;;11.80;10.15;;;9.90;99.90;;;;;;2077068;28;20090;-78
2023/03/20 05:10:42;;;;;;;12.18;10.13;;;9.90;99.90;;;;;;2071881;28;20030;-79
2023/03/20 05:12:03;;;;;;;15.15;10.35;;;9.90;99.90;;;;;;2077930;28;20115;-80
2023/03/20 05:13:15;;;;;;;14.07;10.95;;;9.90;99.90;;;;;;2080191;28;20497;-80
2023/03/20 05:14:33;;;;;;;14.65;11.15;;;9.90;99.90;;;;;;2087298;28;20759;-80
2023/03/20 05:15:56;;;;;;;14.55;11.50;;;9.90;99.90;;;;;;2080105;28;20029;-80
2023/03/20 05:17:20;;;;;;;14.23;11.52;;;9.90;99.90;;;;;;2073668;28;20063;-81
2023/03/20 05:18:48;;;;;;;16.13;11.27;;;9.90;99.90;;;;;;2080547;28;20025;-79
2023/03/20 05:20:10;;;;;;;17.00;10.95;;;9.90;99.90;;;;;;2084852;28;20496;-79
2023/03/20 05:21:27;;;;;;;15.02;11.35;;;9.90;99.90;;;;;;2083316;28;20044;-78
2023/03/20 05:22:41;;;;;;;16.00;11.25;;;10.00;99.90;;;;;;2086984;28;20056;-80
2023/03/20 05:23:46;;;;;;;14.38;10.80;;;10.00;99.90;;;;;;2087039;28;20032;-80
2023/03/20 05:25:09;;;;;;;13.80;10.10;;;10.00;99.90;;;;;;2077047;28;20041;-79
2023/03/20 05:26:31;;;;;;;13.88;10.60;;;10.00;99.90;;;;;;2085769;28;20102;-79
2023/03/20 05:27:49;;;;;;;12.32;9.25;;;10.00;99.90;;;;;;2089618;28;20437;-80
2023/03/20 05:29:05;;;;;;;21.63;15.50;;;10.00;99.90;;;;;;2087566;28;20534;-80
2023/03/20 05:30:06;;;;;;;14.88;6.80;;;10.10;99.90;;;;;;2089661;28;20103;-80
2023/03/20 05:31:15;;;;;;;9.10;6.13;;;10.10;99.90;;;;;;2082762;28;20036;-80
2023/03/20 05:32:35;;;;;;;8.88;5.97;;;10.20;99.90;;;;;;2082616;28;20291;-80
2023/03/20 05:33:49;;;;;;;8.93;5.93;;;10.20;99.90;;;;;;2081343;28;20493;-82
2023/03/20 05:35:00;;;;;;;7.50;5.88;;;10.30;99.90;;;;;;2080566;28;20033;-81
2023/03/20 05:36:21;;;;;;;;;;;10.40;99.90;;;;;;2075068;28;20036;-78
2023/03/20 05:37:29;;;;;;;7.22;5.50;;;10.40;99.90;;;;;;2082767;28;19917;-78
2023/03/20 05:38:54;;;;;;;15.65;6.28;;;10.40;99.90;;;;;;2086650;28;20071;-78
2023/03/20 05:40:19;;;;;;;8.60;5.93;;;10.50;99.90;;;;;;2072371;28;20321;-78
2023/03/20 05:41:42;;;;;;;8.23;6.22;;;10.50;99.90;;;;;;2084896;28;20097;-78
2023/03/20 05:43:02;;;;;;;11.30;5.97;;;10.50;99.90;;;;;;2084674;28;20044;-78
2023/03/20 05:44:28;;;;;;;7.07;5.63;;;10.50;99.90;;;;;;2083366;28;20530;-80
2023/03/20 05:45:45;;;;;;;12.23;6.55;;;10.60;99.90;;;;;;2088533;28;20028;-78
2023/03/20 05:47:07;;;;;;;9.00;5.97;;;10.60;99.90;;;;;;2075656;28;20051;-78
2023/03/20 05:48:30;;;;;;;9.32;6.18;;;10.50;99.90;;;;;;2084209;28;20043;-79
2023/03/20 05:49:46;;;;;;;8.13;5.60;;;10.60;99.90;;;;;;2084309;28;20414;-79
2023/03/20 05:50:57;;;;;;;;;;;10.60;99.90;;;;;;2084974;28;20043;-79